createdAt,value
2017-06-03T00:01:24.775Z,100504
2017-06-03T00:04:13.441Z,100512
2017-06-03T00:09:41.858Z,100517
2017-06-03T00:12:08.937Z,100510
2017-06-03T00:14:35.992Z,100505
2017-06-03T00:17:03.102Z,100512
2017-06-03T00:19:30.184Z,100509
2017-06-03T00:21:57.270Z,100508
2017-06-03T00:24:24.416Z,100505
2017-06-03T00:26:51.488Z,100501
2017-06-03T00:29:18.565Z,100501
2017-06-03T00:31:45.698Z,100494
2017-06-03T00:34:14.442Z,100505
2017-06-03T00:39:42.338Z,100494
2017-06-03T00:42:15.859Z,100488
2017-06-03T00:44:42.986Z,100487
2017-06-03T00:47:10.078Z,100495
2017-06-03T00:52:38.614Z,100492
2017-06-03T00:55:14.281Z,100501
2017-06-03T00:57:41.405Z,100507
2017-06-03T01:00:15.121Z,100502
2017-06-03T01:03:09.573Z,100518
2017-06-03T01:05:36.636Z,100517
2017-06-03T01:08:03.699Z,100502
2017-06-03T01:10:30.805Z,100515
2017-06-03T01:12:57.888Z,100514
2017-06-03T01:15:24.973Z,100519
2017-06-03T01:17:52.086Z,100513
2017-06-03T01:23:19.973Z,100513
2017-06-03T01:25:47.051Z,100504
2017-06-03T01:28:14.117Z,100505
2017-06-03T01:30:41.249Z,100506
2017-06-03T01:33:08.349Z,100499
2017-06-03T01:35:35.443Z,100497
2017-06-03T01:38:02.626Z,100501
2017-06-03T01:40:30.047Z,100496
2017-06-03T01:43:15.115Z,100499
2017-06-03T01:45:42.214Z,100500
2017-06-03T01:48:09.310Z,100502
2017-06-03T01:50:36.452Z,100503
2017-06-03T01:53:16.630Z,100510
2017-06-03T01:55:43.758Z,100505
2017-06-03T01:58:10.828Z,100494
2017-06-03T02:00:37.901Z,100497
2017-06-03T02:03:05.020Z,100494
2017-06-03T02:05:32.189Z,100499
2017-06-03T02:08:14.390Z,100510
2017-06-03T02:10:55.971Z,100513
2017-06-03T02:13:23.093Z,100511
2017-06-03T02:15:50.173Z,100506
2017-06-03T02:18:17.259Z,100509
2017-06-03T02:20:44.386Z,100517
2017-06-03T02:23:11.455Z,100522
2017-06-03T02:25:38.539Z,100522
2017-06-03T02:28:05.655Z,100520
2017-06-03T02:30:32.735Z,100526
2017-06-03T02:32:59.809Z,100523
2017-06-03T02:35:27.561Z,100534
2017-06-03T02:37:54.640Z,100522
2017-06-03T02:40:21.707Z,100525
2017-06-03T02:42:49.076Z,100525
2017-06-03T02:45:16.166Z,100528
2017-06-03T02:47:43.255Z,100530
2017-06-03T02:50:10.377Z,100527
2017-06-03T02:52:37.454Z,100528
2017-06-03T02:55:04.525Z,100521
2017-06-03T02:57:31.650Z,100528
2017-06-03T02:59:58.746Z,100531
2017-06-03T03:02:25.844Z,100532
2017-06-03T03:04:52.965Z,100532
2017-06-03T03:07:20.049Z,100538
2017-06-03T03:09:47.130Z,100529
2017-06-03T03:12:14.266Z,100527
2017-06-03T03:14:41.320Z,100531
2017-06-03T03:17:15.520Z,100536
2017-06-03T03:19:42.598Z,100532
2017-06-03T03:22:09.696Z,100540
2017-06-03T03:24:37.403Z,100542
2017-06-03T03:27:04.481Z,100533
2017-06-03T03:29:31.561Z,100532
2017-06-03T03:31:58.676Z,100533
2017-06-03T03:34:25.753Z,100538
2017-06-03T03:36:52.820Z,100533
2017-06-03T03:39:19.942Z,100537
2017-06-03T03:41:47.033Z,100534
2017-06-03T03:44:14.351Z,100527
2017-06-03T03:46:41.465Z,100539
2017-06-03T03:49:08.530Z,100543
2017-06-03T03:51:35.619Z,100545
2017-06-03T03:54:02.725Z,100548
2017-06-03T03:56:29.805Z,100545
2017-06-03T03:59:14.646Z,100545
2017-06-03T04:04:36.721Z,100543
2017-06-03T04:07:03.801Z,100539
2017-06-03T04:09:30.882Z,100550
2017-06-03T04:11:58.024Z,100547
2017-06-03T04:14:25.097Z,100558
2017-06-03T04:16:52.173Z,100548
2017-06-03T04:19:19.301Z,100547
2017-06-03T04:21:46.374Z,100555
2017-06-03T04:24:14.437Z,100555
2017-06-03T04:29:42.191Z,100560
2017-06-03T04:32:15.517Z,100560
2017-06-03T04:34:42.649Z,100559
2017-06-03T04:37:09.776Z,100558
2017-06-03T04:39:36.852Z,100563
2017-06-03T04:44:40.862Z,100563
2017-06-03T04:47:07.984Z,100562
2017-06-03T04:49:35.078Z,100568
2017-06-03T04:52:02.805Z,100571
2017-06-03T04:54:29.921Z,100563
2017-06-03T04:56:56.984Z,100562
2017-06-03T04:59:24.063Z,100577
2017-06-03T05:01:51.182Z,100570
2017-06-03T05:04:18.270Z,100574
2017-06-03T05:06:45.359Z,100564
2017-06-03T05:09:12.490Z,100569
2017-06-03T05:11:39.586Z,100565
2017-06-03T05:14:06.673Z,100553
2017-06-03T05:16:33.794Z,100560
2017-06-03T05:19:00.865Z,100569
2017-06-03T05:21:27.958Z,100565
2017-06-03T05:23:55.074Z,100563
2017-06-03T05:26:22.170Z,100578
2017-06-03T05:28:49.252Z,100566
2017-06-03T05:31:16.381Z,100578
2017-06-03T05:33:43.445Z,100577
2017-06-03T05:36:13.993Z,100589
2017-06-03T05:38:41.097Z,100575
2017-06-03T05:41:14.720Z,100581
2017-06-03T05:43:41.852Z,100577
2017-06-03T05:46:09.020Z,100572
2017-06-03T05:48:36.114Z,100577
2017-06-03T05:51:03.362Z,100576
2017-06-03T05:56:17.894Z,100579
2017-06-03T05:58:44.973Z,100563
2017-06-03T06:01:12.073Z,100571
2017-06-03T06:03:39.193Z,100568
2017-06-03T06:06:06.282Z,100571
2017-06-03T06:08:33.374Z,100578
2017-06-03T06:11:00.490Z,100581
2017-06-03T06:13:27.583Z,100580
2017-06-03T06:15:54.711Z,100578
2017-06-03T06:18:21.810Z,100576
2017-06-03T06:20:48.946Z,100574
2017-06-03T06:23:16.056Z,100573
2017-06-03T06:25:43.169Z,100577
2017-06-03T06:28:10.270Z,100576
2017-06-03T06:30:54.423Z,100580
2017-06-03T06:33:21.504Z,100589
2017-06-03T06:36:17.032Z,100574
2017-06-03T06:38:44.114Z,100588
2017-06-03T06:41:11.288Z,100594
2017-06-03T06:43:38.405Z,100583
2017-06-03T06:46:15.728Z,100576
2017-06-03T06:52:14.955Z,100582
2017-06-03T06:54:42.110Z,100577
2017-06-03T06:57:16.198Z,100574
2017-06-03T07:00:14.898Z,100574
2017-06-03T07:05:55.942Z,100570
2017-06-03T07:08:23.037Z,100570
2017-06-03T07:11:03.805Z,100567
2017-06-03T07:13:30.881Z,100568
2017-06-03T07:16:13.951Z,100567
2017-06-03T07:18:41.029Z,100564
2017-06-03T07:21:08.145Z,100562
2017-06-03T07:23:35.224Z,100559
2017-06-03T07:26:02.461Z,100560
2017-06-03T07:28:29.578Z,100559
2017-06-03T07:31:03.268Z,100558
2017-06-03T07:33:30.383Z,100559
2017-06-03T07:35:57.487Z,100552
2017-06-03T07:38:24.636Z,100549
2017-06-03T07:40:51.770Z,100553
2017-06-03T07:43:33.794Z,100550
2017-06-03T07:46:00.925Z,100552
2017-06-03T07:48:28.027Z,100552
2017-06-03T07:50:55.185Z,100553
2017-06-03T07:53:22.279Z,100549
2017-06-03T07:55:49.375Z,100546
2017-06-03T07:58:16.525Z,100546
2017-06-03T08:00:43.625Z,100537
2017-06-03T08:03:10.819Z,100532
2017-06-03T08:05:37.939Z,100542
2017-06-03T08:08:05.002Z,100538
2017-06-03T08:10:32.399Z,100539
2017-06-03T08:12:59.517Z,100542
2017-06-03T08:15:26.589Z,100533
2017-06-03T08:18:09.336Z,100536
2017-06-03T08:20:36.422Z,100532
2017-06-03T08:23:03.589Z,100524
2017-06-03T08:25:30.661Z,100526
2017-06-03T08:27:57.749Z,100532
2017-06-03T08:30:24.885Z,100523
2017-06-03T08:32:51.957Z,100522
2017-06-03T08:35:19.048Z,100523
2017-06-03T08:37:46.162Z,100517
2017-06-03T08:40:14.259Z,100513
2017-06-03T08:42:41.920Z,100518
2017-06-03T08:46:06.169Z,100512
2017-06-03T08:48:34.399Z,100504
2017-06-03T08:51:03.390Z,100504
2017-06-03T08:53:31.658Z,100502
2017-06-03T08:55:59.974Z,100502
2017-06-03T08:58:28.266Z,100496
2017-06-03T09:00:56.536Z,100495
2017-06-03T09:03:24.764Z,100497
2017-06-03T09:05:53.082Z,100493
2017-06-03T09:08:21.307Z,100490
2017-06-03T09:11:15.750Z,100491
2017-06-03T09:13:44.026Z,100485
2017-06-03T09:16:12.256Z,100488
2017-06-03T09:18:41.316Z,100482
2017-06-03T09:21:09.562Z,100483
2017-06-03T09:23:37.790Z,100482
2017-06-03T09:26:06.042Z,100483
2017-06-03T09:28:34.289Z,100472
2017-06-03T09:31:02.505Z,100477
2017-06-03T09:33:30.770Z,100478
2017-06-03T09:35:59.020Z,100474
2017-06-03T09:38:27.261Z,100483
2017-06-03T09:41:03.645Z,100489
2017-06-03T09:43:31.884Z,100481
2017-06-03T09:46:00.108Z,100474
2017-06-03T09:48:28.370Z,100479
2017-06-03T09:51:03.819Z,100480
2017-06-03T09:53:32.074Z,100473
2017-06-03T09:56:01.094Z,100476
2017-06-03T09:58:29.341Z,100472
2017-06-03T10:00:58.491Z,100472
2017-06-03T10:03:26.733Z,100466
2017-06-03T10:05:54.959Z,100467
2017-06-03T10:11:24.109Z,100458
2017-06-03T10:13:52.395Z,100460
2017-06-03T10:16:20.613Z,100459
2017-06-03T10:18:48.875Z,100466
2017-06-03T10:21:17.270Z,100460
2017-06-03T10:23:45.517Z,100459
2017-06-03T10:26:13.804Z,100459
2017-06-03T10:28:42.027Z,100463
2017-06-03T10:31:11.024Z,100463
2017-06-03T10:33:40.052Z,100447
2017-06-03T10:36:08.286Z,100453
2017-06-03T10:38:37.281Z,100446
2017-06-03T10:41:06.401Z,100448
2017-06-03T10:46:36.449Z,100441
2017-06-03T10:49:04.720Z,100438
2017-06-03T10:51:32.993Z,100435
2017-06-03T10:54:01.219Z,100438
2017-06-03T10:56:29.442Z,100432
2017-06-03T10:58:57.740Z,100420
2017-06-03T11:01:26.696Z,100420
2017-06-03T11:03:54.985Z,100415
2017-06-03T11:06:23.256Z,100417
2017-06-03T11:08:51.473Z,100414
2017-06-03T11:11:19.699Z,100407
2017-06-03T11:13:47.956Z,100406
2017-06-03T11:16:16.936Z,100401
2017-06-03T11:18:45.233Z,100382
2017-06-03T11:21:14.220Z,100389
2017-06-03T11:23:43.228Z,100391
2017-06-03T11:26:11.510Z,100385
2017-06-03T11:31:40.933Z,100385
2017-06-03T11:34:09.194Z,100381
2017-06-03T11:36:37.484Z,100388
2017-06-03T11:39:14.541Z,100382
2017-06-03T11:41:43.649Z,100385
2017-06-03T11:44:18.334Z,100391
2017-06-03T11:46:46.661Z,100383
2017-06-03T11:49:14.884Z,100381
2017-06-03T11:51:43.112Z,100372
2017-06-03T11:54:11.385Z,100376
2017-06-03T11:59:18.081Z,100381
2017-06-03T12:01:46.327Z,100373
2017-06-03T12:04:15.329Z,100356
2017-06-03T12:06:43.595Z,100366
2017-06-03T12:09:12.635Z,100366
2017-06-03T12:11:40.864Z,100370
2017-06-03T12:14:15.792Z,100368
2017-06-03T12:16:44.769Z,100355
2017-06-03T12:19:12.993Z,100352
2017-06-03T12:21:41.268Z,100349
2017-06-03T12:24:09.482Z,100344
2017-06-03T12:26:37.812Z,100350
2017-06-03T12:29:06.081Z,100345
2017-06-03T12:34:24.880Z,100335
2017-06-03T12:36:53.094Z,100331
2017-06-03T12:39:21.313Z,100325
2017-06-03T12:42:15.750Z,100319
2017-06-03T12:44:52.544Z,100316
2017-06-03T12:47:21.570Z,100308
2017-06-03T12:50:15.985Z,100314
2017-06-03T12:56:14.653Z,100310
2017-06-03T12:58:42.883Z,100313
2017-06-03T13:01:11.098Z,100303
2017-06-03T13:12:42.823Z,100289
2017-06-03T13:15:11.239Z,100285
2017-06-03T13:17:39.459Z,100290
2017-06-03T13:20:07.849Z,100288
2017-06-03T13:22:36.073Z,100290
2017-06-03T13:25:04.304Z,100293
2017-06-03T13:27:32.697Z,100285
2017-06-03T13:30:00.914Z,100286
2017-06-03T13:32:29.143Z,100274
2017-06-03T13:35:16.871Z,100279
2017-06-03T13:37:45.097Z,100274
2017-06-03T13:40:13.322Z,100274
2017-06-03T13:42:41.702Z,100266
2017-06-03T13:45:13.793Z,100262
2017-06-03T13:47:42.115Z,100268
2017-06-03T13:50:10.374Z,100260
2017-06-03T13:52:39.372Z,100258
2017-06-03T13:55:08.594Z,100253
2017-06-03T13:57:36.831Z,100252
2017-06-03T14:00:15.787Z,100249
2017-06-03T14:02:44.011Z,100247
2017-06-03T14:05:18.296Z,100243
2017-06-03T14:07:54.929Z,100242
2017-06-03T14:10:23.981Z,100234
2017-06-03T14:12:52.203Z,100226
2017-06-03T14:15:21.221Z,100234
2017-06-03T14:18:15.965Z,100229
2017-06-03T14:20:44.182Z,100232
2017-06-03T14:23:13.037Z,100225
2017-06-03T14:25:42.025Z,100223
2017-06-03T14:28:16.878Z,100226
2017-06-03T14:30:45.920Z,100217
2017-06-03T14:33:17.655Z,100221
2017-06-03T14:35:45.926Z,100212
2017-06-03T14:38:14.151Z,100215
2017-06-03T14:40:42.376Z,100210
2017-06-03T14:43:10.634Z,100202
2017-06-03T14:48:42.199Z,100206
2017-06-03T14:51:11.180Z,100204
2017-06-03T14:53:40.174Z,100201
2017-06-03T14:56:16.398Z,100194
2017-06-03T14:58:44.616Z,100184
2017-06-03T15:01:13.611Z,100179
2017-06-03T15:03:42.658Z,100174
2017-06-03T15:06:16.794Z,100180
2017-06-03T15:08:45.053Z,100190
2017-06-03T15:11:13.275Z,100189
2017-06-03T15:19:43.050Z,100169
2017-06-03T15:22:17.702Z,100164
2017-06-03T15:24:45.966Z,100159
2017-06-03T15:27:17.281Z,100155
2017-06-03T15:29:45.517Z,100154
2017-06-03T15:32:13.789Z,100151
2017-06-03T15:34:42.658Z,100147
2017-06-03T15:37:17.053Z,100147
2017-06-03T15:39:45.325Z,100146
2017-06-03T15:42:16.767Z,100148
2017-06-03T15:44:44.995Z,100146
2017-06-03T15:47:13.322Z,100138
2017-06-03T15:49:41.627Z,100141
2017-06-03T15:52:10.622Z,100141
2017-06-03T15:54:38.843Z,100136
2017-06-03T15:57:07.888Z,100130
2017-06-03T15:59:36.162Z,100125
2017-06-03T16:02:04.393Z,100117
2017-06-03T16:04:34.323Z,100115
2017-06-03T16:07:02.550Z,100111
2017-06-03T16:09:30.777Z,100112
2017-06-03T16:11:59.029Z,100114
2017-06-03T16:14:28.008Z,100108
2017-06-03T16:17:16.385Z,100111
2017-06-03T16:20:14.850Z,100103
2017-06-03T16:22:43.879Z,100106
2017-06-03T16:25:18.305Z,100087
2017-06-03T16:27:46.561Z,100073
2017-06-03T16:30:14.824Z,100080
2017-06-03T16:32:43.047Z,100097
2017-06-03T16:35:11.311Z,100105
2017-06-03T16:37:39.529Z,100105
2017-06-03T16:40:08.521Z,100100
2017-06-03T16:42:37.645Z,100102
2017-06-03T16:45:18.418Z,100099
2017-06-03T16:47:46.678Z,100105
2017-06-03T16:50:14.907Z,100097
2017-06-03T16:55:44.180Z,100093
2017-06-03T16:58:12.454Z,100090
2017-06-03T17:00:40.674Z,100093
2017-06-03T17:03:16.295Z,100105
2017-06-03T17:05:44.525Z,100097
2017-06-03T17:08:13.510Z,100103
2017-06-03T17:10:42.544Z,100104
2017-06-03T17:13:10.762Z,100100
2017-06-03T17:15:39.096Z,100097
2017-06-03T17:18:07.352Z,100100
2017-06-03T17:21:03.312Z,100099
2017-06-03T17:23:31.671Z,100096
2017-06-03T17:25:59.891Z,100095
2017-06-03T17:28:28.098Z,100085
2017-06-03T17:31:06.426Z,100084
2017-06-03T17:36:34.771Z,100078
2017-06-03T17:39:03.149Z,100083
2017-06-03T17:41:31.493Z,100083
2017-06-03T17:43:59.840Z,100077
2017-06-03T17:46:28.841Z,100067
2017-06-03T17:49:16.823Z,100075
2017-06-03T17:51:45.052Z,100075
2017-06-03T17:54:13.285Z,100080
2017-06-03T17:56:41.610Z,100084
2017-06-03T17:59:16.395Z,100068
2017-06-03T18:01:44.670Z,100073
2017-06-03T18:04:12.995Z,100069
2017-06-03T18:06:41.272Z,100070
2017-06-03T18:09:09.534Z,100073
2017-06-03T18:11:37.756Z,100066
2017-06-03T18:14:05.978Z,100060
2017-06-03T18:16:35.095Z,100057
2017-06-03T18:19:03.343Z,100068
2017-06-03T18:21:32.326Z,100057
2017-06-03T18:24:01.354Z,100053
2017-06-03T18:26:29.636Z,100052
2017-06-03T18:29:17.902Z,100055
2017-06-03T18:31:46.173Z,100051
2017-06-03T18:34:14.415Z,100046
2017-06-03T18:36:42.684Z,100048
2017-06-03T18:39:10.961Z,100048
2017-06-03T18:41:39.253Z,100050
2017-06-03T18:44:17.533Z,100045
2017-06-03T18:46:46.614Z,100045
2017-06-03T18:49:25.548Z,100044
2017-06-03T18:51:53.880Z,100042
2017-06-03T18:54:22.196Z,100048
2017-06-03T18:56:51.246Z,100051
2017-06-03T18:59:19.559Z,100056
2017-06-03T19:01:47.878Z,100052
2017-06-03T19:04:16.802Z,100052
2017-06-03T19:06:45.049Z,100052
2017-06-03T19:09:13.315Z,100049
2017-06-03T19:11:41.553Z,100053
2017-06-03T19:14:09.819Z,100051
2017-06-03T19:16:38.070Z,100051
2017-06-03T19:19:06.289Z,100053
2017-06-03T19:24:25.086Z,100058
2017-06-03T19:27:17.018Z,100064
2017-06-03T19:30:15.296Z,100070
2017-06-03T19:32:43.579Z,100060
2017-06-03T19:35:11.821Z,100058
2017-06-03T19:37:40.814Z,100063
2017-06-03T19:40:16.626Z,100058
2017-06-03T19:42:44.844Z,100056
2017-06-03T19:45:13.837Z,100060
2017-06-03T19:47:42.866Z,100063
2017-06-03T19:50:16.958Z,100056
2017-06-03T19:52:45.182Z,100060
2017-06-03T19:55:16.605Z,100065
2017-06-03T19:57:44.888Z,100066
2017-06-03T20:00:13.116Z,100062
2017-06-03T20:02:42.140Z,100058
2017-06-03T20:05:17.150Z,100050
2017-06-03T20:07:46.187Z,100054
2017-06-03T20:10:14.405Z,100054
2017-06-03T20:12:43.403Z,100050
2017-06-03T20:15:12.464Z,100054
2017-06-03T20:17:40.708Z,100051
2017-06-03T20:20:08.983Z,100056
2017-06-03T20:22:37.211Z,100049
2017-06-03T20:25:05.457Z,100049
2017-06-03T20:27:33.808Z,100055
2017-06-03T20:30:02.026Z,100056
2017-06-03T20:32:30.352Z,100049
2017-06-03T20:34:58.637Z,100051
2017-06-03T20:37:26.845Z,100035
2017-06-03T20:39:55.066Z,100036
2017-06-03T20:45:24.240Z,100026
2017-06-03T20:47:52.468Z,100021
2017-06-03T20:50:20.683Z,100033
2017-06-03T20:53:15.593Z,100020
2017-06-03T20:55:43.900Z,100019
2017-06-03T20:58:12.123Z,100023
2017-06-03T21:00:41.254Z,100019
2017-06-03T21:03:16.664Z,100019
2017-06-03T21:06:15.627Z,100013
2017-06-03T21:08:43.894Z,100009
2017-06-03T21:11:12.179Z,100010
2017-06-03T21:13:40.403Z,100004
2017-06-03T21:16:08.859Z,100007
2017-06-03T21:18:37.103Z,100009
2017-06-03T21:21:05.351Z,100005
2017-06-03T21:23:34.346Z,99992
2017-06-03T21:26:16.343Z,99993
2017-06-03T21:29:15.274Z,99998
2017-06-03T21:34:45.094Z,99986
2017-06-03T21:37:13.309Z,99991
2017-06-03T21:39:41.655Z,99986
2017-06-03T21:45:01.758Z,99972
2017-06-03T21:47:29.996Z,99968
2017-06-03T21:49:59.267Z,99966
2017-06-03T21:52:27.486Z,99960
2017-06-03T21:54:55.697Z,99958
2017-06-03T21:57:23.955Z,99953
2017-06-03T22:00:15.774Z,99956
2017-06-03T22:02:44.037Z,99957
2017-06-03T22:05:12.259Z,99957
2017-06-03T22:07:40.524Z,99953
2017-06-03T22:10:08.738Z,99959
2017-06-03T22:12:37.753Z,99950
2017-06-03T22:15:16.285Z,99949
2017-06-03T22:18:14.763Z,99948
2017-06-03T22:20:43.020Z,99934
2017-06-03T22:23:11.997Z,99936
2017-06-03T22:25:40.308Z,99923
2017-06-03T22:31:09.150Z,99916
2017-06-03T22:33:37.530Z,99924
2017-06-03T22:36:18.841Z,99909
2017-06-03T22:39:15.067Z,99916
2017-06-03T22:41:44.053Z,99915
2017-06-03T22:44:18.675Z,99908
2017-06-03T22:46:46.891Z,99924
2017-06-03T22:49:18.481Z,99908
2017-06-03T22:51:46.753Z,99911
2017-06-03T22:54:18.998Z,99902
2017-06-03T22:56:47.269Z,99904
2017-06-03T22:59:16.348Z,99900
2017-06-03T23:01:44.565Z,99896
2017-06-03T23:04:16.527Z,99898
2017-06-03T23:06:44.742Z,99893
2017-06-03T23:09:17.290Z,99898
2017-06-03T23:11:45.526Z,99886
2017-06-03T23:14:13.800Z,99889
2017-06-03T23:16:42.024Z,99885
2017-06-03T23:19:10.224Z,99878
2017-06-03T23:24:39.282Z,99868
2017-06-03T23:27:07.504Z,99863
2017-06-03T23:29:36.517Z,99859
2017-06-03T23:32:05.343Z,99857
2017-06-03T23:34:33.561Z,99861
2017-06-03T23:37:02.581Z,99861
2017-06-03T23:39:30.859Z,99859
2017-06-03T23:41:59.132Z,99863
2017-06-03T23:44:27.353Z,99855
2017-06-03T23:46:55.613Z,99857
2017-06-03T23:49:23.883Z,99847
2017-06-03T23:52:17.932Z,99851
2017-06-03T23:55:15.989Z,99852
2017-06-03T23:57:44.988Z,99850
